sensor_id;sensor_type;location;lat;lon;timestamp;temperature;humidity
33761;DHT22;20084;47.912;19.044;2022-09-14T00:02:05;15.40;99.90
33761;DHT22;20084;47.912;19.044;2022-09-14T00:04:31;15.40;99.90
33761;DHT22;20084;47.912;19.044;2022-09-14T00:06:56;15.40;99.90
33761;DHT22;20084;47.912;19.044;2022-09-14T00:09:23;15.30;99.90
33761;DHT22;20084;47.912;19.044;2022-09-14T00:11:49;15.20;99.90
33761;DHT22;20084;47.912;19.044;2022-09-14T00:14:16;15.10;99.90
33761;DHT22;20084;47.912;19.044;2022-09-14T00:16:42;15.00;99.90
33761;DHT22;20084;47.912;19.044;2022-09-14T00:21:44;14.90;99.90
33761;DHT22;20084;47.912;19.044;2022-09-14T00:24:11;14.80;99.90
33761;DHT22;20084;47.912;19.044;2022-09-14T00:26:37;14.80;99.90
33761;DHT22;20084;47.912;19.044;2022-09-14T00:29:03;14.80;99.90
33761;DHT22;20084;47.912;19.044;2022-09-14T00:31:33;14.80;99.90
33761;DHT22;20084;47.912;19.044;2022-09-14T00:34:00;14.80;99.90
33761;DHT22;20084;47.912;19.044;2022-09-14T00:36:28;14.80;99.90
33761;DHT22;20084;47.912;19.044;2022-09-14T00:38:55;14.80;99.90
33761;DHT22;20084;47.912;19.044;2022-09-14T00:41:27;14.80;99.90
33761;DHT22;20084;47.912;19.044;2022-09-14T00:44:01;14.80;99.90
33761;DHT22;20084;47.912;19.044;2022-09-14T00:46:29;14.80;99.90
33761;DHT22;20084;47.912;19.044;2022-09-14T00:48:58;14.80;99.90
33761;DHT22;20084;47.912;19.044;2022-09-14T00:51:25;14.80;99.90
33761;DHT22;20084;47.912;19.044;2022-09-14T00:53:51;14.80;99.90
33761;DHT22;20084;47.912;19.044;2022-09-14T00:56:17;14.80;99.90
33761;DHT22;20084;47.912;19.044;2022-09-14T00:58:44;14.80;99.90
33761;DHT22;20084;47.912;19.044;2022-09-14T01:01:10;14.80;99.90
33761;DHT22;20084;47.912;19.044;2022-09-14T01:03:36;14.80;99.90
33761;DHT22;20084;47.912;19.044;2022-09-14T01:09:30;14.70;99.90
33761;DHT22;20084;47.912;19.044;2022-09-14T01:14:36;14.70;99.90
33761;DHT22;20084;47.912;19.044;2022-09-14T01:17:21;14.70;99.90
33761;DHT22;20084;47.912;19.044;2022-09-14T01:27:47;14.70;99.90
33761;DHT22;20084;47.912;19.044;2022-09-14T01:30:19;14.80;99.90
33761;DHT22;20084;47.912;19.044;2022-09-14T01:33:13;14.80;99.90
33761;DHT22;20084;47.912;19.044;2022-09-14T01:35:46;14.80;99.90
33761;DHT22;20084;47.912;19.044;2022-09-14T01:38:39;14.80;99.90
33761;DHT22;20084;47.912;19.044;2022-09-14T01:41:09;14.80;99.90
33761;DHT22;20084;47.912;19.044;2022-09-14T01:43:45;14.80;99.90
33761;DHT22;20084;47.912;19.044;2022-09-14T01:46:16;14.80;99.90
33761;DHT22;20084;47.912;19.044;2022-09-14T01:48:47;14.80;99.90
33761;DHT22;20084;47.912;19.044;2022-09-14T01:51:32;14.80;99.90
33761;DHT22;20084;47.912;19.044;2022-09-14T01:54:06;14.80;99.90
33761;DHT22;20084;47.912;19.044;2022-09-14T01:56:37;14.80;99.90
33761;DHT22;20084;47.912;19.044;2022-09-14T01:59:26;14.80;99.90
33761;DHT22;20084;47.912;19.044;2022-09-14T02:02:00;14.90;99.90
33761;DHT22;20084;47.912;19.044;2022-09-14T02:07:13;14.80;99.90
33761;DHT22;20084;47.912;19.044;2022-09-14T02:09:39;14.80;99.90
33761;DHT22;20084;47.912;19.044;2022-09-14T02:12:06;14.80;99.90
33761;DHT22;20084;47.912;19.044;2022-09-14T02:14:32;14.80;99.90
33761;DHT22;20084;47.912;19.044;2022-09-14T02:16:57;14.80;99.90
33761;DHT22;20084;47.912;19.044;2022-09-14T02:19:25;14.70;99.90
33761;DHT22;20084;47.912;19.044;2022-09-14T02:21:50;14.80;99.90
33761;DHT22;20084;47.912;19.044;2022-09-14T02:24:17;14.70;99.90
33761;DHT22;20084;47.912;19.044;2022-09-14T02:26:43;14.60;99.90
33761;DHT22;20084;47.912;19.044;2022-09-14T02:29:09;14.60;99.90
33761;DHT22;20084;47.912;19.044;2022-09-14T02:52:54;14.60;99.90
33761;DHT22;20084;47.912;19.044;2022-09-14T02:55:24;14.60;99.90
33761;DHT22;20084;47.912;19.044;2022-09-14T02:58:05;14.50;99.90
33761;DHT22;20084;47.912;19.044;2022-09-14T03:00:35;14.50;99.90
33761;DHT22;20084;47.912;19.044;2022-09-14T03:03:02;14.60;99.90
33761;DHT22;20084;47.912;19.044;2022-09-14T03:05:28;14.70;99.90
33761;DHT22;20084;47.912;19.044;2022-09-14T03:07:54;14.80;99.90
33761;DHT22;20084;47.912;19.044;2022-09-14T03:10:19;14.80;99.90
33761;DHT22;20084;47.912;19.044;2022-09-14T03:12:45;14.90;99.90
33761;DHT22;20084;47.912;19.044;2022-09-14T03:15:10;15.00;99.90
33761;DHT22;20084;47.912;19.044;2022-09-14T03:17:36;15.10;99.90
33761;DHT22;20084;47.912;19.044;2022-09-14T03:20:02;15.10;99.90
33761;DHT22;20084;47.912;19.044;2022-09-14T03:22:29;15.20;99.90
33761;DHT22;20084;47.912;19.044;2022-09-14T03:24:54;15.30;99.90
33761;DHT22;20084;47.912;19.044;2022-09-14T03:27:20;15.30;99.90
33761;DHT22;20084;47.912;19.044;2022-09-14T03:29:45;15.40;99.90
33761;DHT22;20084;47.912;19.044;2022-09-14T03:32:11;15.40;99.90
33761;DHT22;20084;47.912;19.044;2022-09-14T03:34:36;15.50;99.90
33761;DHT22;20084;47.912;19.044;2022-09-14T03:37:02;15.50;99.90
33761;DHT22;20084;47.912;19.044;2022-09-14T03:39:28;15.50;99.90
33761;DHT22;20084;47.912;19.044;2022-09-14T03:41:54;15.50;99.90
33761;DHT22;20084;47.912;19.044;2022-09-14T03:44:19;15.50;99.90
33761;DHT22;20084;47.912;19.044;2022-09-14T03:46:45;15.50;99.90
33761;DHT22;20084;47.912;19.044;2022-09-14T03:49:11;15.50;99.90
33761;DHT22;20084;47.912;19.044;2022-09-14T03:51:36;15.40;99.90
33761;DHT22;20084;47.912;19.044;2022-09-14T03:54:02;15.40;99.90
33761;DHT22;20084;47.912;19.044;2022-09-14T03:56:28;15.40;99.90
33761;DHT22;20084;47.912;19.044;2022-09-14T03:58:53;15.50;99.90
33761;DHT22;20084;47.912;19.044;2022-09-14T04:01:21;15.50;99.90
33761;DHT22;20084;47.912;19.044;2022-09-14T04:03:47;15.50;99.90
33761;DHT22;20084;47.912;19.044;2022-09-14T04:06:14;15.50;99.90
33761;DHT22;20084;47.912;19.044;2022-09-14T04:08:41;15.50;99.90
33761;DHT22;20084;47.912;19.044;2022-09-14T04:11:16;15.50;99.90
33761;DHT22;20084;47.912;19.044;2022-09-14T04:13:43;15.50;99.90
33761;DHT22;20084;47.912;19.044;2022-09-14T04:16:09;15.50;99.90
33761;DHT22;20084;47.912;19.044;2022-09-14T04:18:35;15.50;99.90
33761;DHT22;20084;47.912;19.044;2022-09-14T04:21:07;15.50;99.90
33761;DHT22;20084;47.912;19.044;2022-09-14T04:23:33;15.50;99.90
33761;DHT22;20084;47.912;19.044;2022-09-14T04:25:59;15.40;99.90
33761;DHT22;20084;47.912;19.044;2022-09-14T04:28:24;15.40;99.90
33761;DHT22;20084;47.912;19.044;2022-09-14T04:30:57;15.40;99.90
33761;DHT22;20084;47.912;19.044;2022-09-14T04:33:24;15.40;99.90
33761;DHT22;20084;47.912;19.044;2022-09-14T04:35:58;15.30;99.90
33761;DHT22;20084;47.912;19.044;2022-09-14T04:38:24;15.30;99.90
33761;DHT22;20084;47.912;19.044;2022-09-14T04:40:50;15.20;99.90
33761;DHT22;20084;47.912;19.044;2022-09-14T04:43:15;15.20;99.90
33761;DHT22;20084;47.912;19.044;2022-09-14T04:45:41;15.10;99.90
33761;DHT22;20084;47.912;19.044;2022-09-14T04:48:06;15.10;99.90
33761;DHT22;20084;47.912;19.044;2022-09-14T04:50:33;15.00;99.90
33761;DHT22;20084;47.912;19.044;2022-09-14T04:52:59;15.00;99.90
33761;DHT22;20084;47.912;19.044;2022-09-14T04:55:24;15.00;99.90
33761;DHT22;20084;47.912;19.044;2022-09-14T04:57:52;15.10;99.90
33761;DHT22;20084;47.912;19.044;2022-09-14T05:00:18;15.20;99.90
33761;DHT22;20084;47.912;19.044;2022-09-14T05:02:43;15.20;99.90
33761;DHT22;20084;47.912;19.044;2022-09-14T05:05:09;15.20;99.90
33761;DHT22;20084;47.912;19.044;2022-09-14T05:07:35;15.30;99.90
33761;DHT22;20084;47.912;19.044;2022-09-14T05:10:00;15.30;99.90
33761;DHT22;20084;47.912;19.044;2022-09-14T05:12:26;15.30;99.90
33761;DHT22;20084;47.912;19.044;2022-09-14T05:14:51;15.40;99.90
33761;DHT22;20084;47.912;19.044;2022-09-14T05:17:17;15.50;99.90
33761;DHT22;20084;47.912;19.044;2022-09-14T05:19:43;15.50;99.90
33761;DHT22;20084;47.912;19.044;2022-09-14T05:22:08;15.60;99.90
33761;DHT22;20084;47.912;19.044;2022-09-14T05:24:34;15.60;99.90
33761;DHT22;20084;47.912;19.044;2022-09-14T05:26:59;15.70;99.90
33761;DHT22;20084;47.912;19.044;2022-09-14T05:29:25;15.80;99.90
33761;DHT22;20084;47.912;19.044;2022-09-14T05:31:51;15.80;99.90
33761;DHT22;20084;47.912;19.044;2022-09-14T05:34:16;15.90;99.90
33761;DHT22;20084;47.912;19.044;2022-09-14T05:36:42;15.90;99.90
33761;DHT22;20084;47.912;19.044;2022-09-14T05:39:08;16.00;99.90
33761;DHT22;20084;47.912;19.044;2022-09-14T05:41:34;16.10;99.90
33761;DHT22;20084;47.912;19.044;2022-09-14T05:43:59;16.20;99.90
33761;DHT22;20084;47.912;19.044;2022-09-14T05:46:25;16.20;99.90
33761;DHT22;20084;47.912;19.044;2022-09-14T05:48:51;16.20;99.90
33761;DHT22;20084;47.912;19.044;2022-09-14T05:51:19;16.20;99.90
33761;DHT22;20084;47.912;19.044;2022-09-14T05:53:55;16.20;99.90
33761;DHT22;20084;47.912;19.044;2022-09-14T05:56:22;16.10;99.90
33761;DHT22;20084;47.912;19.044;2022-09-14T05:58:49;16.10;99.90
33761;DHT22;20084;47.912;19.044;2022-09-14T06:01:21;16.10;99.90
33761;DHT22;20084;47.912;19.044;2022-09-14T06:03:47;16.20;99.90
33761;DHT22;20084;47.912;19.044;2022-09-14T06:06:16;16.20;99.90
33761;DHT22;20084;47.912;19.044;2022-09-14T06:08:42;16.30;99.90
33761;DHT22;20084;47.912;19.044;2022-09-14T06:11:13;16.30;99.90
33761;DHT22;20084;47.912;19.044;2022-09-14T06:13:40;16.40;99.90
33761;DHT22;20084;47.912;19.044;2022-09-14T06:16:10;16.40;99.90
33761;DHT22;20084;47.912;19.044;2022-09-14T06:18:38;16.40;99.90
33761;DHT22;20084;47.912;19.044;2022-09-14T06:21:04;16.50;99.90
33761;DHT22;20084;47.912;19.044;2022-09-14T06:23:31;16.50;99.90
33761;DHT22;20084;47.912;19.044;2022-09-14T06:25:58;16.50;99.90
33761;DHT22;20084;47.912;19.044;2022-09-14T06:28:24;16.60;99.90
33761;DHT22;20084;47.912;19.044;2022-09-14T06:30:51;16.50;99.90
33761;DHT22;20084;47.912;19.044;2022-09-14T06:33:17;16.50;99.90
33761;DHT22;20084;47.912;19.044;2022-09-14T06:35:56;16.50;99.90
33761;DHT22;20084;47.912;19.044;2022-09-14T06:38:21;16.60;99.90
33761;DHT22;20084;47.912;19.044;2022-09-14T06:40:55;16.70;99.90
33761;DHT22;20084;47.912;19.044;2022-09-14T06:43:22;16.70;99.90
33761;DHT22;20084;47.912;19.044;2022-09-14T06:45:59;16.70;99.90
33761;DHT22;20084;47.912;19.044;2022-09-14T06:48:27;16.60;99.90
33761;DHT22;20084;47.912;19.044;2022-09-14T06:50:53;16.70;99.90
33761;DHT22;20084;47.912;19.044;2022-09-14T06:53:18;16.80;99.90
33761;DHT22;20084;47.912;19.044;2022-09-14T06:55:44;16.80;99.90
33761;DHT22;20084;47.912;19.044;2022-09-14T06:58:10;16.90;99.90
33761;DHT22;20084;47.912;19.044;2022-09-14T07:00:36;17.00;99.90
33761;DHT22;20084;47.912;19.044;2022-09-14T07:03:02;17.00;99.90
33761;DHT22;20084;47.912;19.044;2022-09-14T07:05:28;17.00;99.90
33761;DHT22;20084;47.912;19.044;2022-09-14T07:07:55;17.10;99.90
33761;DHT22;20084;47.912;19.044;2022-09-14T07:10:21;17.10;99.90
33761;DHT22;20084;47.912;19.044;2022-09-14T07:12:47;17.10;99.90
33761;DHT22;20084;47.912;19.044;2022-09-14T07:15:13;17.20;99.90
33761;DHT22;20084;47.912;19.044;2022-09-14T07:17:38;17.20;99.90
33761;DHT22;20084;47.912;19.044;2022-09-14T07:20:05;17.10;99.90
33761;DHT22;20084;47.912;19.044;2022-09-14T07:22:32;17.10;99.90
33761;DHT22;20084;47.912;19.044;2022-09-14T07:24:58;17.10;99.90
33761;DHT22;20084;47.912;19.044;2022-09-14T07:27:24;17.20;99.90
33761;DHT22;20084;47.912;19.044;2022-09-14T07:29:50;17.20;99.90
33761;DHT22;20084;47.912;19.044;2022-09-14T07:32:15;17.20;99.90
33761;DHT22;20084;47.912;19.044;2022-09-14T07:34:41;17.20;99.90
33761;DHT22;20084;47.912;19.044;2022-09-14T07:37:07;17.30;99.90
33761;DHT22;20084;47.912;19.044;2022-09-14T07:39:32;17.40;99.90
33761;DHT22;20084;47.912;19.044;2022-09-14T07:41:58;17.40;99.90
33761;DHT22;20084;47.912;19.044;2022-09-14T07:44:24;17.50;99.90
33761;DHT22;20084;47.912;19.044;2022-09-14T07:46:50;17.50;99.90
33761;DHT22;20084;47.912;19.044;2022-09-14T07:49:16;17.50;99.90
33761;DHT22;20084;47.912;19.044;2022-09-14T07:51:42;17.50;99.90
33761;DHT22;20084;47.912;19.044;2022-09-14T07:54:10;17.60;99.90
33761;DHT22;20084;47.912;19.044;2022-09-14T07:56:36;17.60;99.90
33761;DHT22;20084;47.912;19.044;2022-09-14T07:59:03;17.60;99.90
33761;DHT22;20084;47.912;19.044;2022-09-14T08:01:30;17.60;99.90
33761;DHT22;20084;47.912;19.044;2022-09-14T08:03:59;17.70;99.90
33761;DHT22;20084;47.912;19.044;2022-09-14T08:06:27;17.70;99.90
33761;DHT22;20084;47.912;19.044;2022-09-14T08:08:53;17.70;99.90
33761;DHT22;20084;47.912;19.044;2022-09-14T08:11:28;17.80;99.90
33761;DHT22;20084;47.912;19.044;2022-09-14T08:14:10;17.80;99.90
33761;DHT22;20084;47.912;19.044;2022-09-14T08:16:36;17.70;99.90
33761;DHT22;20084;47.912;19.044;2022-09-14T08:19:05;17.80;99.90
33761;DHT22;20084;47.912;19.044;2022-09-14T08:21:32;17.80;99.90
33761;DHT22;20084;47.912;19.044;2022-09-14T08:23:58;17.80;99.90
33761;DHT22;20084;47.912;19.044;2022-09-14T08:26:27;17.90;99.90
33761;DHT22;20084;47.912;19.044;2022-09-14T08:28:53;17.90;99.90
33761;DHT22;20084;47.912;19.044;2022-09-14T08:31:21;18.00;99.90
33761;DHT22;20084;47.912;19.044;2022-09-14T08:33:53;17.90;99.90
33761;DHT22;20084;47.912;19.044;2022-09-14T08:36:21;17.90;99.90
33761;DHT22;20084;47.912;19.044;2022-09-14T08:38:47;18.00;99.90
33761;DHT22;20084;47.912;19.044;2022-09-14T08:43:52;17.90;99.90
33761;DHT22;20084;47.912;19.044;2022-09-14T08:46:32;17.90;99.90
33761;DHT22;20084;47.912;19.044;2022-09-14T08:49:00;18.00;99.90
33761;DHT22;20084;47.912;19.044;2022-09-14T08:51:27;17.90;99.90
33761;DHT22;20084;47.912;19.044;2022-09-14T08:53:55;17.80;99.90
33761;DHT22;20084;47.912;19.044;2022-09-14T08:56:24;17.90;99.90
33761;DHT22;20084;47.912;19.044;2022-09-14T09:07:19;18.10;99.90
33761;DHT22;20084;47.912;19.044;2022-09-14T09:09:48;18.20;99.90
33761;DHT22;20084;47.912;19.044;2022-09-14T09:12:26;18.30;99.90
33761;DHT22;20084;47.912;19.044;2022-09-14T09:14:59;18.30;99.90
33761;DHT22;20084;47.912;19.044;2022-09-14T09:17:30;18.30;99.90
33761;DHT22;20084;47.912;19.044;2022-09-14T09:20:10;18.40;99.90
33761;DHT22;20084;47.912;19.044;2022-09-14T09:25:30;18.30;99.90
33761;DHT22;20084;47.912;19.044;2022-09-14T09:28:11;18.30;99.90
33761;DHT22;20084;47.912;19.044;2022-09-14T09:30:37;18.20;99.90
33761;DHT22;20084;47.912;19.044;2022-09-14T09:33:06;18.20;99.90
33761;DHT22;20084;47.912;19.044;2022-09-14T09:35:32;18.10;99.90
33761;DHT22;20084;47.912;19.044;2022-09-14T09:37:58;18.10;99.90
33761;DHT22;20084;47.912;19.044;2022-09-14T09:40:48;18.10;99.90
33761;DHT22;20084;47.912;19.044;2022-09-14T09:43:16;18.20;99.90
33761;DHT22;20084;47.912;19.044;2022-09-14T09:48:16;18.30;99.90
33761;DHT22;20084;47.912;19.044;2022-09-14T09:51:01;18.40;99.90
33761;DHT22;20084;47.912;19.044;2022-09-14T09:53:28;18.30;99.90
33761;DHT22;20084;47.912;19.044;2022-09-14T09:55:54;18.40;99.90
33761;DHT22;20084;47.912;19.044;2022-09-14T09:58:35;18.40;99.90
33761;DHT22;20084;47.912;19.044;2022-09-14T10:01:06;18.40;99.90
33761;DHT22;20084;47.912;19.044;2022-09-14T10:03:36;18.50;99.90
33761;DHT22;20084;47.912;19.044;2022-09-14T10:06:07;18.50;99.90
33761;DHT22;20084;47.912;19.044;2022-09-14T10:08:40;18.50;99.90
33761;DHT22;20084;47.912;19.044;2022-09-14T10:11:30;18.60;99.90
33761;DHT22;20084;47.912;19.044;2022-09-14T10:13:56;18.60;99.90
33761;DHT22;20084;47.912;19.044;2022-09-14T10:16:23;18.60;99.90
33761;DHT22;20084;47.912;19.044;2022-09-14T10:18:51;18.60;99.90
33761;DHT22;20084;47.912;19.044;2022-09-14T10:21:19;18.60;99.90
33761;DHT22;20084;47.912;19.044;2022-09-14T10:23:46;18.60;99.90
33761;DHT22;20084;47.912;19.044;2022-09-14T10:28:43;18.60;99.90
33761;DHT22;20084;47.912;19.044;2022-09-14T10:33:43;18.60;99.90
33761;DHT22;20084;47.912;19.044;2022-09-14T10:36:28;18.60;99.90
33761;DHT22;20084;47.912;19.044;2022-09-14T10:39:22;18.60;99.90
33761;DHT22;20084;47.912;19.044;2022-09-14T10:41:59;18.70;99.90
33761;DHT22;20084;47.912;19.044;2022-09-14T10:50:26;18.80;99.90
33761;DHT22;20084;47.912;19.044;2022-09-14T10:53:11;18.80;99.90
33761;DHT22;20084;47.912;19.044;2022-09-14T10:58:23;18.90;99.90
33761;DHT22;20084;47.912;19.044;2022-09-14T11:12:16;19.00;99.90
33761;DHT22;20084;47.912;19.044;2022-09-14T11:14:52;19.00;99.90
33761;DHT22;20084;47.912;19.044;2022-09-14T11:22:43;19.00;99.90
33761;DHT22;20084;47.912;19.044;2022-09-14T11:25:23;19.10;99.90
33761;DHT22;20084;47.912;19.044;2022-09-14T11:27:53;19.20;99.90
33761;DHT22;20084;47.912;19.044;2022-09-14T11:30:26;19.20;99.90
33761;DHT22;20084;47.912;19.044;2022-09-14T11:33:03;19.30;99.90
33761;DHT22;20084;47.912;19.044;2022-09-14T11:35:50;19.30;99.90
33761;DHT22;20084;47.912;19.044;2022-09-14T11:38:20;19.40;99.90
33761;DHT22;20084;47.912;19.044;2022-09-14T11:40:54;19.40;99.90
33761;DHT22;20084;47.912;19.044;2022-09-14T11:43:42;19.50;99.90
33761;DHT22;20084;47.912;19.044;2022-09-14T11:46:13;19.40;99.90
33761;DHT22;20084;47.912;19.044;2022-09-14T11:48:48;19.50;99.90
33761;DHT22;20084;47.912;19.044;2022-09-14T11:51:23;19.60;99.90
33761;DHT22;20084;47.912;19.044;2022-09-14T11:53:49;19.60;99.90
33761;DHT22;20084;47.912;19.044;2022-09-14T11:56:27;19.60;99.90
33761;DHT22;20084;47.912;19.044;2022-09-14T11:58:55;19.50;99.90
33761;DHT22;20084;47.912;19.044;2022-09-14T12:01:26;19.40;99.90
33761;DHT22;20084;47.912;19.044;2022-09-14T12:04:04;19.50;99.90
33761;DHT22;20084;47.912;19.044;2022-09-14T12:11:42;19.60;99.90
33761;DHT22;20084;47.912;19.044;2022-09-14T12:14:35;19.70;99.90
33761;DHT22;20084;47.912;19.044;2022-09-14T12:17:27;19.80;99.90
33761;DHT22;20084;47.912;19.044;2022-09-14T12:19:58;19.80;99.90
33761;DHT22;20084;47.912;19.044;2022-09-14T12:22:34;19.80;99.90
33761;DHT22;20084;47.912;19.044;2022-09-14T12:25:02;19.80;99.90
33761;DHT22;20084;47.912;19.044;2022-09-14T12:27:32;19.80;99.90
33761;DHT22;20084;47.912;19.044;2022-09-14T12:29:59;19.90;99.90
33761;DHT22;20084;47.912;19.044;2022-09-14T12:32:41;20.00;99.90
33761;DHT22;20084;47.912;19.044;2022-09-14T12:40:57;20.30;99.90
33761;DHT22;20084;47.912;19.044;2022-09-14T13:05:18;21.30;99.90
33761;DHT22;20084;47.912;19.044;2022-09-14T13:07:45;21.50;99.90
33761;DHT22;20084;47.912;19.044;2022-09-14T13:10:47;21.50;99.90
33761;DHT22;20084;47.912;19.044;2022-09-14T13:13:20;21.50;99.90
33761;DHT22;20084;47.912;19.044;2022-09-14T13:15:56;21.40;99.90
33761;DHT22;20084;47.912;19.044;2022-09-14T13:18:27;21.30;99.90
33761;DHT22;20084;47.912;19.044;2022-09-14T13:20:56;21.20;99.90
33761;DHT22;20084;47.912;19.044;2022-09-14T13:23:39;21.10;99.90
33761;DHT22;20084;47.912;19.044;2022-09-14T13:28:42;20.90;99.90
33761;DHT22;20084;47.912;19.044;2022-09-14T13:31:12;21.00;99.90
33761;DHT22;20084;47.912;19.044;2022-09-14T13:33:44;21.00;99.90
33761;DHT22;20084;47.912;19.044;2022-09-14T13:36:16;21.00;99.90
33761;DHT22;20084;47.912;19.044;2022-09-14T13:38:43;21.00;99.90
33761;DHT22;20084;47.912;19.044;2022-09-14T13:41:12;20.90;99.90
33761;DHT22;20084;47.912;19.044;2022-09-14T13:43:40;20.80;99.90
33761;DHT22;20084;47.912;19.044;2022-09-14T13:46:06;20.80;99.90
33761;DHT22;20084;47.912;19.044;2022-09-14T13:48:37;20.80;99.90
33761;DHT22;20084;47.912;19.044;2022-09-14T13:51:05;20.80;99.90
33761;DHT22;20084;47.912;19.044;2022-09-14T13:53:51;20.90;99.90
33761;DHT22;20084;47.912;19.044;2022-09-14T13:56:23;21.00;99.90
33761;DHT22;20084;47.912;19.044;2022-09-14T13:59:11;21.10;99.90
33761;DHT22;20084;47.912;19.044;2022-09-14T14:04:33;20.90;99.90
33761;DHT22;20084;47.912;19.044;2022-09-14T14:09:58;20.80;99.90
33761;DHT22;20084;47.912;19.044;2022-09-14T14:12:30;20.90;99.90
33761;DHT22;20084;47.912;19.044;2022-09-14T14:19:56;21.00;99.90
33761;DHT22;20084;47.912;19.044;2022-09-14T14:22:28;21.20;99.90
33761;DHT22;20084;47.912;19.044;2022-09-14T14:24:56;21.20;99.90
33761;DHT22;20084;47.912;19.044;2022-09-14T14:27:32;21.30;99.90
33761;DHT22;20084;47.912;19.044;2022-09-14T14:30:00;21.40;99.90
33761;DHT22;20084;47.912;19.044;2022-09-14T14:32:27;21.50;99.90
33761;DHT22;20084;47.912;19.044;2022-09-14T14:34:54;21.60;99.90
33761;DHT22;20084;47.912;19.044;2022-09-14T14:37:20;21.70;99.90
33761;DHT22;20084;47.912;19.044;2022-09-14T14:39:46;21.80;99.90
33761;DHT22;20084;47.912;19.044;2022-09-14T14:42:16;21.80;99.90
33761;DHT22;20084;47.912;19.044;2022-09-14T14:44:42;21.90;99.90
33761;DHT22;20084;47.912;19.044;2022-09-14T14:47:11;21.90;99.90
33761;DHT22;20084;47.912;19.044;2022-09-14T14:49:37;21.90;99.90
33761;DHT22;20084;47.912;19.044;2022-09-14T14:52:03;21.90;99.90
33761;DHT22;20084;47.912;19.044;2022-09-14T14:54:28;21.90;99.90
33761;DHT22;20084;47.912;19.044;2022-09-14T14:56:54;21.90;99.90
33761;DHT22;20084;47.912;19.044;2022-09-14T15:01:51;21.90;99.90
33761;DHT22;20084;47.912;19.044;2022-09-14T15:04:18;21.80;99.90
33761;DHT22;20084;47.912;19.044;2022-09-14T15:06:45;21.80;99.90
33761;DHT22;20084;47.912;19.044;2022-09-14T15:09:22;21.80;99.90
33761;DHT22;20084;47.912;19.044;2022-09-14T15:11:49;21.90;99.90
33761;DHT22;20084;47.912;19.044;2022-09-14T15:14:16;22.00;99.90
33761;DHT22;20084;47.912;19.044;2022-09-14T15:16:43;22.10;99.90
33761;DHT22;20084;47.912;19.044;2022-09-14T15:19:09;22.20;99.90
33761;DHT22;20084;47.912;19.044;2022-09-14T15:21:36;22.30;99.90
33761;DHT22;20084;47.912;19.044;2022-09-14T15:24:02;22.20;99.90
33761;DHT22;20084;47.912;19.044;2022-09-14T15:26:28;22.20;99.90
33761;DHT22;20084;47.912;19.044;2022-09-14T15:28:54;22.20;99.90
33761;DHT22;20084;47.912;19.044;2022-09-14T15:31:19;22.20;99.90
33761;DHT22;20084;47.912;19.044;2022-09-14T15:33:45;22.00;99.90
33761;DHT22;20084;47.912;19.044;2022-09-14T15:36:11;22.10;99.90
33761;DHT22;20084;47.912;19.044;2022-09-14T15:38:37;22.00;99.90
33761;DHT22;20084;47.912;19.044;2022-09-14T15:41:03;22.00;99.90
33761;DHT22;20084;47.912;19.044;2022-09-14T15:43:29;21.90;99.90
33761;DHT22;20084;47.912;19.044;2022-09-14T15:46:00;21.90;99.90
33761;DHT22;20084;47.912;19.044;2022-09-14T15:48:26;21.90;99.90
33761;DHT22;20084;47.912;19.044;2022-09-14T15:50:52;21.90;99.90
33761;DHT22;20084;47.912;19.044;2022-09-14T15:53:18;21.90;99.90
33761;DHT22;20084;47.912;19.044;2022-09-14T15:55:44;21.90;99.90
33761;DHT22;20084;47.912;19.044;2022-09-14T15:58:10;21.90;99.90
33761;DHT22;20084;47.912;19.044;2022-09-14T16:00:41;21.90;99.90
33761;DHT22;20084;47.912;19.044;2022-09-14T16:03:08;21.90;99.90
33761;DHT22;20084;47.912;19.044;2022-09-14T16:05:39;21.90;99.90
33761;DHT22;20084;47.912;19.044;2022-09-14T16:08:05;22.00;99.90
33761;DHT22;20084;47.912;19.044;2022-09-14T16:10:31;22.00;99.90
33761;DHT22;20084;47.912;19.044;2022-09-14T16:12:57;21.90;99.90
33761;DHT22;20084;47.912;19.044;2022-09-14T16:15:23;21.90;99.90
33761;DHT22;20084;47.912;19.044;2022-09-14T16:17:52;21.80;99.90
33761;DHT22;20084;47.912;19.044;2022-09-14T16:20:19;21.80;99.90
33761;DHT22;20084;47.912;19.044;2022-09-14T16:22:46;21.80;99.90
33761;DHT22;20084;47.912;19.044;2022-09-14T16:25:12;21.70;99.90
33761;DHT22;20084;47.912;19.044;2022-09-14T16:27:38;21.60;99.90
33761;DHT22;20084;47.912;19.044;2022-09-14T16:30:05;21.60;99.90
33761;DHT22;20084;47.912;19.044;2022-09-14T16:32:31;21.50;99.90
33761;DHT22;20084;47.912;19.044;2022-09-14T16:34:57;21.50;99.90
33761;DHT22;20084;47.912;19.044;2022-09-14T16:37:22;21.40;99.90
33761;DHT22;20084;47.912;19.044;2022-09-14T16:39:48;21.30;99.90
33761;DHT22;20084;47.912;19.044;2022-09-14T16:42:14;21.30;99.90
33761;DHT22;20084;47.912;19.044;2022-09-14T16:44:39;21.20;99.90
33761;DHT22;20084;47.912;19.044;2022-09-14T16:47:05;21.20;99.90
33761;DHT22;20084;47.912;19.044;2022-09-14T16:49:30;21.00;99.90
33761;DHT22;20084;47.912;19.044;2022-09-14T16:51:56;21.00;99.90
33761;DHT22;20084;47.912;19.044;2022-09-14T16:54:25;20.90;99.90
33761;DHT22;20084;47.912;19.044;2022-09-14T16:56:50;20.80;99.90
33761;DHT22;20084;47.912;19.044;2022-09-14T16:59:16;20.70;99.90
33761;DHT22;20084;47.912;19.044;2022-09-14T17:01:44;20.60;99.90
33761;DHT22;20084;47.912;19.044;2022-09-14T17:04:12;20.50;99.90
33761;DHT22;20084;47.912;19.044;2022-09-14T17:06:40;20.40;99.90
33761;DHT22;20084;47.912;19.044;2022-09-14T17:09:17;20.30;99.90
33761;DHT22;20084;47.912;19.044;2022-09-14T17:11:43;20.30;99.90
33761;DHT22;20084;47.912;19.044;2022-09-14T17:14:13;20.20;99.90
33761;DHT22;20084;47.912;19.044;2022-09-14T17:16:40;20.10;99.90
33761;DHT22;20084;47.912;19.044;2022-09-14T17:19:06;20.10;99.90
33761;DHT22;20084;47.912;19.044;2022-09-14T17:21:34;20.00;99.90
33761;DHT22;20084;47.912;19.044;2022-09-14T17:24:01;20.00;99.90
33761;DHT22;20084;47.912;19.044;2022-09-14T17:26:27;19.90;99.90
33761;DHT22;20084;47.912;19.044;2022-09-14T17:28:55;19.90;99.90
33761;DHT22;20084;47.912;19.044;2022-09-14T17:31:24;19.80;99.90
33761;DHT22;20084;47.912;19.044;2022-09-14T17:33:52;19.80;99.90
33761;DHT22;20084;47.912;19.044;2022-09-14T17:36:18;19.80;99.90
33761;DHT22;20084;47.912;19.044;2022-09-14T17:38:43;19.70;99.90
33761;DHT22;20084;47.912;19.044;2022-09-14T17:41:17;19.70;99.90
33761;DHT22;20084;47.912;19.044;2022-09-14T17:43:43;19.60;99.90